createdAt,value
2023-09-22T00:00:17.037Z,10.85
2023-09-22T00:02:46.801Z,10.88
2023-09-22T00:05:16.033Z,10.50
2023-09-22T00:07:46.633Z,10.69
2023-09-22T00:10:15.241Z,10.62
2023-09-22T00:12:44.391Z,10.91
2023-09-22T00:15:13.095Z,10.97
2023-09-22T00:17:41.684Z,10.70
2023-09-22T00:20:14.443Z,10.96
2023-09-22T00:22:43.560Z,10.73
2023-09-22T00:25:13.951Z,10.63
2023-09-22T00:27:42.680Z,10.72
2023-09-22T00:30:12.212Z,10.93
2023-09-22T00:32:42.151Z,10.45
2023-09-22T00:35:13.051Z,10.54
2023-09-22T00:37:42.113Z,10.46
2023-09-22T00:40:14.156Z,10.56
2023-09-22T00:42:42.915Z,10.77
2023-09-22T00:45:12.111Z,10.62
2023-09-22T00:47:41.226Z,10.47
2023-09-22T00:50:11.561Z,10.45
2023-09-22T00:52:41.068Z,10.52
2023-09-22T00:55:12.280Z,10.65
2023-09-22T00:57:41.842Z,10.70
2023-09-22T01:00:12.915Z,10.91
2023-09-22T01:05:34.396Z,10.55
2023-09-22T01:08:02.936Z,10.70
2023-09-22T01:10:39.015Z,10.52
2023-09-22T01:13:08.170Z,10.36
2023-09-22T01:15:38.832Z,10.55
2023-09-22T01:18:07.675Z,10.51
2023-09-22T01:20:42.960Z,10.71
2023-09-22T01:23:14.538Z,10.61
2023-09-22T01:25:43.582Z,10.71
2023-09-22T01:28:13.418Z,10.60
2023-09-22T01:30:42.415Z,10.50
2023-09-22T01:33:11.366Z,10.62
2023-09-22T01:35:40.364Z,10.66
2023-09-22T01:38:15.500Z,10.87
2023-09-22T01:40:44.956Z,10.70
2023-09-22T01:43:15.747Z,10.87
2023-09-22T01:46:03.424Z,11.04
2023-09-22T01:48:50.688Z,10.87
2023-09-22T01:51:40.059Z,10.52
2023-09-22T01:54:28.698Z,10.52
2023-09-22T01:57:17.386Z,10.64
2023-09-22T02:00:11.655Z,10.42
2023-09-22T02:02:59.107Z,10.49
2023-09-22T02:05:46.327Z,10.54
2023-09-22T02:08:33.569Z,10.35
2023-09-22T02:11:22.534Z,10.36
2023-09-22T02:14:10.437Z,10.47
2023-09-22T02:16:57.276Z,10.38
2023-09-22T02:19:45.090Z,10.31
2023-09-22T02:22:32.488Z,10.30
2023-09-22T02:25:01.040Z,10.63
2023-09-22T02:27:30.985Z,10.45
2023-09-22T02:29:59.497Z,10.83
2023-09-22T02:32:28.313Z,10.63
2023-09-22T02:34:57.144Z,10.66
2023-09-22T02:37:25.994Z,10.50
2023-09-22T02:39:54.563Z,10.92
2023-09-22T02:42:23.392Z,10.64
2023-09-22T02:44:53.360Z,10.94
2023-09-22T02:47:22.131Z,10.58
2023-09-22T02:49:51.286Z,10.93
2023-09-22T02:52:19.816Z,10.69
2023-09-22T02:54:48.612Z,10.70
2023-09-22T02:57:17.775Z,10.63
2023-09-22T02:59:46.289Z,10.89
2023-09-22T03:02:16.422Z,10.89
2023-09-22T03:04:45.223Z,11.03
2023-09-22T03:07:13.998Z,10.91
2023-09-22T03:09:42.626Z,10.85
2023-09-22T03:12:11.529Z,11.03
2023-09-22T03:14:40.037Z,10.94
2023-09-22T03:17:10.946Z,11.07
2023-09-22T03:19:40.813Z,10.99
2023-09-22T03:22:09.295Z,11.21
2023-09-22T03:24:37.852Z,11.08
2023-09-22T03:27:06.375Z,11.23
2023-09-22T03:29:34.875Z,11.08
2023-09-22T03:32:03.505Z,11.00
2023-09-22T03:34:32.043Z,11.18
2023-09-22T03:37:02.174Z,11.20
2023-09-22T03:39:32.089Z,11.26
2023-09-22T03:42:00.684Z,11.16
2023-09-22T03:44:29.286Z,11.06
2023-09-22T03:46:58.024Z,10.89
2023-09-22T03:49:26.565Z,10.99
2023-09-22T03:51:55.553Z,11.01
2023-09-22T03:54:25.641Z,11.26
2023-09-22T03:56:54.200Z,11.14
2023-09-22T03:59:22.721Z,10.86
2023-09-22T04:01:52.137Z,10.89
2023-09-22T04:04:20.782Z,10.69
2023-09-22T04:06:49.622Z,10.65
2023-09-22T04:09:18.148Z,10.93
2023-09-22T04:11:48.356Z,10.89
2023-09-22T04:14:16.876Z,10.86
2023-09-22T04:16:45.572Z,10.92
2023-09-22T04:19:14.723Z,10.88
2023-09-22T04:21:47.398Z,10.89
2023-09-22T04:24:16.587Z,10.82
2023-09-22T04:26:45.142Z,11.05
2023-09-22T04:29:15.471Z,11.03
2023-09-22T04:31:44.406Z,10.96
2023-09-22T04:34:13.767Z,11.05
2023-09-22T04:36:42.919Z,11.05
2023-09-22T04:39:11.968Z,11.02
2023-09-22T04:41:40.567Z,11.16
2023-09-22T04:44:09.336Z,11.01
2023-09-22T04:46:39.306Z,11.13
2023-09-22T04:49:08.282Z,11.15
2023-09-22T04:51:37.234Z,11.09
2023-09-22T04:54:06.876Z,11.13
2023-09-22T04:56:35.410Z,11.28
2023-09-22T04:59:05.084Z,11.33
2023-09-22T05:01:33.963Z,11.22
2023-09-22T05:04:04.565Z,11.22
2023-09-22T05:06:33.295Z,11.20
2023-09-22T05:09:01.885Z,11.19
2023-09-22T05:11:30.413Z,11.15
2023-09-22T05:13:58.968Z,11.00
2023-09-22T05:16:27.521Z,10.91
2023-09-22T05:18:56.316Z,11.03
2023-09-22T05:21:26.751Z,11.03
2023-09-22T05:23:55.555Z,11.09
2023-09-22T05:26:24.267Z,10.91
2023-09-22T05:28:52.966Z,10.80
2023-09-22T05:31:21.713Z,10.85
2023-09-22T05:33:50.441Z,10.74
2023-09-22T05:36:19.269Z,10.95
2023-09-22T05:38:49.188Z,10.91
2023-09-22T05:41:17.701Z,10.83
2023-09-22T05:43:46.232Z,10.92
2023-09-22T05:46:14.751Z,10.90
2023-09-22T05:48:43.746Z,11.05
2023-09-22T05:51:13.435Z,10.93
2023-09-22T05:53:41.954Z,11.14
2023-09-22T05:56:13.425Z,11.10
2023-09-22T05:58:42.603Z,11.05
2023-09-22T06:01:12.802Z,10.85
2023-09-22T06:03:43.699Z,10.99
2023-09-22T06:06:14.429Z,11.09
2023-09-22T06:08:46.663Z,11.15
2023-09-22T06:11:17.928Z,11.17
2023-09-22T06:13:46.448Z,11.03
2023-09-22T06:16:15.087Z,11.05
2023-09-22T06:18:43.941Z,11.04
2023-09-22T06:21:12.967Z,11.01
2023-09-22T06:23:41.483Z,10.94
2023-09-22T06:26:11.353Z,10.97
2023-09-22T06:28:41.255Z,10.88
2023-09-22T06:31:10.247Z,10.85
2023-09-22T06:33:38.945Z,11.01
2023-09-22T06:36:08.133Z,10.86
2023-09-22T06:38:36.725Z,11.09
2023-09-22T06:41:06.373Z,11.10
2023-09-22T06:43:37.602Z,10.94
2023-09-22T06:46:25.133Z,11.09
2023-09-22T06:48:53.931Z,11.01
2023-09-22T06:51:22.537Z,11.12
2023-09-22T06:53:51.222Z,11.07
2023-09-22T06:56:19.860Z,11.30
2023-09-22T06:58:49.199Z,11.20
2023-09-22T07:01:19.491Z,11.27
2023-09-22T07:03:51.094Z,11.45
2023-09-22T07:06:21.201Z,11.46
2023-09-22T07:08:49.903Z,11.40
2023-09-22T07:11:20.110Z,11.43
2023-09-22T07:13:48.647Z,11.54
2023-09-22T07:16:17.248Z,11.50
2023-09-22T07:18:46.155Z,11.64
2023-09-22T07:21:16.264Z,11.51
2023-09-22T07:23:46.175Z,11.66
2023-09-22T07:26:14.714Z,11.78
2023-09-22T07:28:43.511Z,11.73
2023-09-22T07:31:13.731Z,11.75
2023-09-22T07:33:44.707Z,11.85
2023-09-22T07:36:16.917Z,11.85
2023-09-22T07:38:46.523Z,11.77
2023-09-22T07:41:15.417Z,11.81
2023-09-22T07:43:44.545Z,11.50
2023-09-22T07:46:13.221Z,11.32
2023-09-22T07:48:41.799Z,11.49
2023-09-22T07:51:10.364Z,11.43
2023-09-22T07:53:40.295Z,11.65
2023-09-22T07:56:13.671Z,11.65
2023-09-22T07:58:43.316Z,11.28
2023-09-22T08:01:16.986Z,11.35
2023-09-22T08:03:46.275Z,11.46
2023-09-22T08:06:15.136Z,11.28
2023-09-22T08:08:46.237Z,11.21
2023-09-22T08:11:15.416Z,11.08
2023-09-22T08:13:43.996Z,11.07
2023-09-22T08:16:13.138Z,11.21
2023-09-22T08:18:42.046Z,11.22
2023-09-22T08:21:11.271Z,11.23
2023-09-22T08:23:49.190Z,10.98
2023-09-22T08:26:20.207Z,11.05
2023-09-22T08:28:50.081Z,10.80
2023-09-22T08:31:18.654Z,11.18
2023-09-22T08:33:47.318Z,11.31
2023-09-22T08:36:17.325Z,11.05
2023-09-22T08:38:47.708Z,11.43
2023-09-22T08:41:16.682Z,11.30
2023-09-22T08:43:47.427Z,11.43
2023-09-22T08:46:17.440Z,11.07
2023-09-22T08:48:46.409Z,11.00
2023-09-22T08:51:15.665Z,10.95
2023-09-22T08:53:45.238Z,11.07
2023-09-22T08:56:15.575Z,11.50
2023-09-22T08:58:45.859Z,11.51
2023-09-22T09:01:14.618Z,11.19
2023-09-22T09:03:43.658Z,11.68
2023-09-22T09:06:15.566Z,11.20
2023-09-22T09:08:45.021Z,11.27
2023-09-22T09:11:13.670Z,11.57
2023-09-22T09:13:42.261Z,11.54
2023-09-22T09:16:13.361Z,11.72
2023-09-22T09:18:41.961Z,11.72
2023-09-22T09:21:12.829Z,11.81
2023-09-22T09:23:54.389Z,12.09
2023-09-22T09:26:26.532Z,12.23
2023-09-22T09:28:55.641Z,12.00
2023-09-22T09:31:46.753Z,12.13
2023-09-22T09:34:16.277Z,12.20
2023-09-22T09:36:45.010Z,12.62
2023-09-22T09:39:16.680Z,12.37
2023-09-22T09:41:45.854Z,12.77
2023-09-22T09:44:14.647Z,12.65
2023-09-22T09:46:46.305Z,13.17
2023-09-22T09:49:16.026Z,13.11
2023-09-22T09:51:49.764Z,13.79
2023-09-22T09:54:22.147Z,13.90
2023-09-22T09:56:54.061Z,12.88
2023-09-22T09:59:23.377Z,12.90
2023-09-22T10:01:53.865Z,13.27
2023-09-22T10:04:23.831Z,12.98
2023-09-22T10:06:54.301Z,13.34
2023-09-22T10:09:23.362Z,13.21
2023-09-22T10:11:52.922Z,13.59
2023-09-22T10:14:48.166Z,13.34
2023-09-22T10:17:26.609Z,13.69
2023-09-22T10:19:55.571Z,13.59
2023-09-22T10:22:27.510Z,13.39
2023-09-22T10:25:33.719Z,13.70
2023-09-22T10:28:07.981Z,13.66
2023-09-22T10:31:05.107Z,13.58
2023-09-22T10:33:35.040Z,13.13
2023-09-22T10:36:05.737Z,13.30
2023-09-22T10:38:56.937Z,13.50
2023-09-22T10:41:25.450Z,13.70
2023-09-22T10:44:03.518Z,13.61
2023-09-22T10:46:32.889Z,13.52
2023-09-22T10:49:03.140Z,13.69
2023-09-22T10:51:45.058Z,13.54
2023-09-22T10:54:13.627Z,13.89
2023-09-22T10:56:42.459Z,13.90
2023-09-22T10:59:12.648Z,14.03
2023-09-22T11:01:48.074Z,14.27
2023-09-22T11:04:19.563Z,14.32
2023-09-22T11:06:48.749Z,14.26
2023-09-22T11:09:17.296Z,13.91
2023-09-22T11:11:48.829Z,13.79
2023-09-22T11:14:22.442Z,13.39
2023-09-22T11:16:51.474Z,13.28
2023-09-22T11:19:22.971Z,12.95
2023-09-22T11:21:51.553Z,13.22
2023-09-22T11:24:20.131Z,12.81
2023-09-22T11:26:48.907Z,13.23
2023-09-22T11:29:19.031Z,13.37
2023-09-22T11:31:54.661Z,13.62
2023-09-22T11:34:27.054Z,13.52
2023-09-22T11:36:56.584Z,14.02
2023-09-22T11:39:31.255Z,13.36
2023-09-22T11:42:00.324Z,13.32
2023-09-22T11:44:29.075Z,13.56
2023-09-22T11:46:57.855Z,13.57
2023-09-22T11:49:38.053Z,14.17
2023-09-22T11:52:07.092Z,14.82
2023-09-22T11:54:37.152Z,14.22
2023-09-22T11:57:05.901Z,14.48
2023-09-22T11:59:36.156Z,13.97
2023-09-22T12:02:07.743Z,14.39
2023-09-22T12:04:39.826Z,15.03
2023-09-22T12:07:09.536Z,14.88
2023-09-22T12:09:39.584Z,14.69
2023-09-22T12:12:08.441Z,15.06
2023-09-22T12:14:37.187Z,15.61
2023-09-22T12:17:05.784Z,15.45
2023-09-22T12:19:34.587Z,15.03
2023-09-22T12:22:04.520Z,14.96
2023-09-22T12:24:33.058Z,15.24
2023-09-22T12:27:01.590Z,15.03
2023-09-22T12:29:30.574Z,14.82
2023-09-22T12:32:00.919Z,14.54
2023-09-22T12:34:29.554Z,14.62
2023-09-22T12:36:58.374Z,13.89
2023-09-22T12:39:29.072Z,14.00
2023-09-22T12:41:57.592Z,14.28
2023-09-22T12:44:26.364Z,14.31
2023-09-22T12:46:55.138Z,14.56
2023-09-22T12:49:24.421Z,14.73
2023-09-22T12:51:53.034Z,14.38
2023-09-22T12:54:22.312Z,14.63
2023-09-22T12:56:52.346Z,14.68
2023-09-22T12:59:20.912Z,15.14
2023-09-22T13:01:49.579Z,15.78
2023-09-22T13:04:18.367Z,15.86
2023-09-22T13:06:47.249Z,15.20
2023-09-22T13:09:16.622Z,14.94
2023-09-22T13:11:45.123Z,14.92
2023-09-22T13:14:15.045Z,14.71
2023-09-22T13:16:43.932Z,14.70
2023-09-22T13:19:13.069Z,14.40
2023-09-22T13:21:41.651Z,14.39
2023-09-22T13:24:10.298Z,14.66
2023-09-22T13:26:38.794Z,14.85
2023-09-22T13:29:07.351Z,14.74
2023-09-22T13:31:37.396Z,15.04
2023-09-22T13:34:06.321Z,15.62
2023-09-22T13:36:34.890Z,15.66
2023-09-22T13:39:04.980Z,15.68
2023-09-22T13:41:33.500Z,15.46
2023-09-22T13:44:02.345Z,15.87
2023-09-22T13:46:31.027Z,15.84
2023-09-22T13:49:01.056Z,15.93
2023-09-22T13:51:32.795Z,16.18
2023-09-22T13:54:01.407Z,16.35
2023-09-22T13:56:29.924Z,16.23
2023-09-22T13:58:59.718Z,16.11
2023-09-22T14:01:29.073Z,15.64
2023-09-22T14:03:59.224Z,15.88
2023-09-22T14:06:29.685Z,16.06
2023-09-22T14:08:59.646Z,16.28
2023-09-22T14:11:28.311Z,16.24
2023-09-22T14:13:56.861Z,16.08
2023-09-22T14:16:29.304Z,15.98
2023-09-22T14:18:58.543Z,15.51
2023-09-22T14:21:28.659Z,15.45
2023-09-22T14:23:57.383Z,15.11
2023-09-22T14:26:25.885Z,15.13
2023-09-22T14:28:55.166Z,14.94
2023-09-22T14:31:24.945Z,15.32
2023-09-22T14:33:53.596Z,15.18
2023-09-22T14:36:22.169Z,15.37
2023-09-22T14:38:52.466Z,15.64
2023-09-22T14:41:21.175Z,15.64
2023-09-22T14:43:49.998Z,15.92
2023-09-22T14:46:18.955Z,15.88
2023-09-22T14:48:48.234Z,15.83
2023-09-22T14:51:17.409Z,15.50
2023-09-22T14:53:46.309Z,15.14
2023-09-22T14:56:16.408Z,15.27
2023-09-22T14:58:45.197Z,15.07
2023-09-22T15:01:14.216Z,14.99
2023-09-22T15:03:43.024Z,15.11
2023-09-22T15:06:11.649Z,15.08
2023-09-22T15:08:40.540Z,14.90
2023-09-22T15:11:09.047Z,14.71
2023-09-22T15:13:38.967Z,14.42
2023-09-22T15:16:08.535Z,14.70
2023-09-22T15:18:38.916Z,14.66
2023-09-22T15:21:10.218Z,14.48
2023-09-22T15:23:39.412Z,14.49
2023-09-22T15:26:10.521Z,14.26
2023-09-22T15:28:42.193Z,14.27
2023-09-22T15:31:11.782Z,14.11
2023-09-22T15:33:40.546Z,14.20
2023-09-22T15:36:09.463Z,14.05
2023-09-22T15:38:38.757Z,14.13
2023-09-22T15:41:09.566Z,13.79
2023-09-22T15:43:38.705Z,13.79
2023-09-22T15:46:09.842Z,13.90
2023-09-22T15:48:38.533Z,13.71
2023-09-22T15:51:07.670Z,13.60
2023-09-22T15:53:37.337Z,13.50
2023-09-22T15:56:07.752Z,13.45
2023-09-22T15:58:36.776Z,13.36
2023-09-22T16:01:07.069Z,13.54
2023-09-22T16:03:35.819Z,13.43
2023-09-22T16:06:07.676Z,13.25
2023-09-22T16:08:37.955Z,12.97
2023-09-22T16:11:10.094Z,12.91
2023-09-22T16:13:39.762Z,13.04
2023-09-22T16:16:10.807Z,13.00
2023-09-22T16:18:40.280Z,12.64
2023-09-22T16:21:09.834Z,12.83
2023-09-22T16:23:38.640Z,12.74
2023-09-22T16:26:09.387Z,12.71
2023-09-22T16:28:39.613Z,12.47
2023-09-22T16:31:10.075Z,12.50
2023-09-22T16:33:38.909Z,12.60
2023-09-22T16:36:08.627Z,12.73
2023-09-22T16:38:37.649Z,12.64
2023-09-22T16:41:09.550Z,12.66
2023-09-22T16:43:42.212Z,12.70
2023-09-22T16:46:12.442Z,12.81
2023-09-22T16:48:41.281Z,12.58
2023-09-22T16:51:10.057Z,12.54
2023-09-22T16:53:38.661Z,12.43
2023-09-22T16:56:10.644Z,11.87
2023-09-22T16:58:42.043Z,11.81
2023-09-22T17:01:12.580Z,11.70
2023-09-22T17:03:41.419Z,11.34
2023-09-22T17:06:10.183Z,11.08
2023-09-22T17:08:39.820Z,10.95
2023-09-22T17:11:09.276Z,10.97
2023-09-22T17:13:37.859Z,11.25
2023-09-22T17:16:07.286Z,11.40
2023-09-22T17:18:38.455Z,11.21
2023-09-22T17:21:20.732Z,11.30
2023-09-22T17:23:56.101Z,11.00
2023-09-22T17:26:25.188Z,11.21
2023-09-22T17:28:54.989Z,10.89
2023-09-22T17:31:24.148Z,11.09
2023-09-22T17:33:54.970Z,10.66
2023-09-22T17:36:24.663Z,10.81
2023-09-22T17:38:53.247Z,10.75
2023-09-22T17:41:26.501Z,10.53
2023-09-22T17:43:55.169Z,10.68
2023-09-22T17:46:26.249Z,10.41
2023-09-22T17:48:56.810Z,10.29
2023-09-22T17:51:25.314Z,10.43
2023-09-22T17:53:53.833Z,10.56
2023-09-22T17:56:22.651Z,10.52
2023-09-22T17:58:51.138Z,10.21
2023-09-22T18:01:20.115Z,10.35
2023-09-22T18:03:49.316Z,10.21
2023-09-22T18:06:19.442Z,10.16
2023-09-22T18:08:49.009Z,10.39
2023-09-22T18:11:17.738Z,10.25
2023-09-22T18:13:46.703Z,10.20
2023-09-22T18:16:15.606Z,10.12
2023-09-22T18:18:44.453Z,10.26
2023-09-22T18:21:13.159Z,10.15
2023-09-22T18:23:56.768Z,10.42
2023-09-22T18:26:32.098Z,10.04
2023-09-22T18:29:00.774Z,10.28
2023-09-22T18:31:30.427Z,10.19
2023-09-22T18:34:01.724Z,9.98
2023-09-22T18:36:30.602Z,10.21
2023-09-22T18:39:00.518Z,9.96
2023-09-22T18:41:29.200Z,10.10
2023-09-22T18:43:59.461Z,9.83
2023-09-22T18:46:28.440Z,9.84
2023-09-22T18:48:57.361Z,9.66
2023-09-22T18:51:25.938Z,9.65
2023-09-22T18:53:54.517Z,9.76
2023-09-22T18:56:24.467Z,9.50
2023-09-22T18:58:52.962Z,9.79
2023-09-22T19:01:23.722Z,9.67
2023-09-22T19:03:52.804Z,9.74
2023-09-22T19:06:21.545Z,9.65
2023-09-22T19:08:50.561Z,9.50
2023-09-22T19:11:20.832Z,9.50
2023-09-22T19:13:50.820Z,9.27
2023-09-22T19:16:20.862Z,9.31
2023-09-22T19:18:49.623Z,9.21
2023-09-22T19:21:27.268Z,9.39
2023-09-22T19:23:55.938Z,9.11
2023-09-22T19:26:24.466Z,9.44
2023-09-22T19:28:54.589Z,9.29
2023-09-22T19:31:23.172Z,9.48
2023-09-22T19:33:51.824Z,9.07
2023-09-22T19:36:21.186Z,9.14
2023-09-22T19:38:49.715Z,9.28
2023-09-22T19:41:20.286Z,9.17
2023-09-22T19:43:49.809Z,8.96
2023-09-22T19:46:19.998Z,9.05
2023-09-22T19:48:48.775Z,8.97
2023-09-22T19:51:17.388Z,9.09
2023-09-22T19:53:46.170Z,9.15
2023-09-22T19:56:15.827Z,9.28
2023-09-22T19:58:44.888Z,9.25
2023-09-22T20:01:13.801Z,9.41
2023-09-22T20:03:45.657Z,9.40
2023-09-22T20:06:14.551Z,9.55
2023-09-22T20:08:43.242Z,9.35
2023-09-22T20:11:12.463Z,9.56
2023-09-22T20:13:41.948Z,9.58
2023-09-22T20:16:14.038Z,9.55
2023-09-22T20:18:44.634Z,9.45
2023-09-22T20:21:13.277Z,9.34
2023-09-22T20:23:42.016Z,9.58
2023-09-22T20:26:12.019Z,9.43
2023-09-22T20:28:40.695Z,9.09
2023-09-22T20:31:10.235Z,8.80
2023-09-22T20:33:38.895Z,9.08
2023-09-22T20:36:12.155Z,9.01
2023-09-22T20:38:45.954Z,9.05
2023-09-22T20:41:18.557Z,9.22
2023-09-22T20:43:51.577Z,9.32
2023-09-22T20:46:23.544Z,9.37
2023-09-22T20:48:52.918Z,9.15
2023-09-22T20:51:24.635Z,8.82
2023-09-22T20:53:53.357Z,8.89
2023-09-22T20:56:22.562Z,9.17
2023-09-22T20:58:52.708Z,9.11
2023-09-22T21:01:22.432Z,9.33
2023-09-22T21:03:51.544Z,9.49
2023-09-22T21:06:20.073Z,9.47
2023-09-22T21:08:49.996Z,9.26
2023-09-22T21:11:18.570Z,9.46
2023-09-22T21:13:47.169Z,9.37
2023-09-22T21:16:16.573Z,9.34
2023-09-22T21:18:45.355Z,9.59
2023-09-22T21:21:14.876Z,9.74
2023-09-22T21:23:43.895Z,9.54
2023-09-22T21:26:16.041Z,9.46
2023-09-22T21:28:44.866Z,9.81
2023-09-22T21:31:13.693Z,9.54
2023-09-22T21:33:42.291Z,9.70
2023-09-22T21:36:12.382Z,9.67
2023-09-22T21:38:41.123Z,9.75
2023-09-22T21:41:11.299Z,9.65
2023-09-22T21:43:42.153Z,9.58
2023-09-22T21:46:12.346Z,9.76
2023-09-22T21:48:41.116Z,9.78
2023-09-22T21:51:11.365Z,9.86
2023-09-22T21:53:42.044Z,9.90
2023-09-22T21:56:10.907Z,9.72
2023-09-22T21:58:40.983Z,9.88
2023-09-22T22:01:11.645Z,9.71
2023-09-22T22:03:44.390Z,9.47
2023-09-22T22:06:13.541Z,9.53
2023-09-22T22:08:42.705Z,9.61
2023-09-22T22:11:11.952Z,9.50
2023-09-22T22:13:43.824Z,9.30
2023-09-22T22:16:14.347Z,9.45
2023-09-22T22:18:43.464Z,9.37
2023-09-22T22:21:13.085Z,9.18
2023-09-22T22:23:43.903Z,9.24
2023-09-22T22:26:18.223Z,9.08
2023-09-22T22:28:48.461Z,9.00
2023-09-22T22:31:19.526Z,8.72
2023-09-22T22:33:48.864Z,8.61
2023-09-22T22:36:17.683Z,8.52
2023-09-22T22:38:46.529Z,8.76
2023-09-22T22:41:15.196Z,8.49
2023-09-22T22:43:43.886Z,8.47
2023-09-22T22:46:13.960Z,8.37
2023-09-22T22:48:42.513Z,8.08
2023-09-22T22:51:11.322Z,8.16
2023-09-22T22:53:39.882Z,8.24
2023-09-22T22:56:08.815Z,8.43
2023-09-22T22:58:38.677Z,8.43
2023-09-22T23:01:07.885Z,8.19
2023-09-22T23:03:38.163Z,8.27
2023-09-22T23:06:09.344Z,8.82
2023-09-22T23:08:40.166Z,8.66
2023-09-22T23:11:13.137Z,8.54
2023-09-22T23:13:42.836Z,8.65
2023-09-22T23:16:13.143Z,8.82
2023-09-22T23:18:45.986Z,8.90
2023-09-22T23:21:15.929Z,8.66
2023-09-22T23:23:45.272Z,8.66
2023-09-22T23:26:15.539Z,8.71
2023-09-22T23:28:44.193Z,8.90
2023-09-22T23:31:12.723Z,8.65
2023-09-22T23:33:42.865Z,8.46
2023-09-22T23:36:14.562Z,8.82
2023-09-22T23:38:44.318Z,8.60
2023-09-22T23:41:12.999Z,8.65
2023-09-22T23:43:44.346Z,8.78
2023-09-22T23:46:14.961Z,8.58
2023-09-22T23:48:45.330Z,8.57
2023-09-22T23:51:14.058Z,8.84
2023-09-22T23:53:42.964Z,8.67
2023-09-22T23:56:11.536Z,8.77
2023-09-22T23:58:40.356Z,8.54
